Terminal Aerodrome Forecast
Issued by NWS

Home | Current Version | Previous Version | Text Only | Print | Product List | Glossary On
Versions: 1 2 3 4 5 6 7 8 9 10 11 12 13 14 15 16 17 18 19 20 21 22 23 24 25 26
467
FTUS41 KILN 281207 AAA
TAFLUK
TAF AMD
KLUK 281207Z 2812/2912 00000KT 4SM -RA BR SCT006 BKN012
      TEMPO 2812/2814 2SM TSRA BR SCT012CB OVC040
     FM281600 36008KT P6SM SCT040
     FM282200 01012KT P6SM SKC
     FM290400 02008KT P6SM SCT010
      TEMPO 2908/2912 BKN020=

USA.gov is the U.S. government's official web portal to all federal, state and local government web resources and services.